Blegny, Belgium
Current Conditions -  °F | °C
As of 10:50 PM on Wednesday 28 Jan 2015 (Local Time) from EBLG Reporting Station
Few Clouds Few Clouds  
Wind Chill: 25°   Ceiling: Unl
Heat Index: 36°   Visibility: 6mi
Dew Point: 28°   Wind: 18mph
Humidity: 75%   Direction: 240°WSW
Pressure: 29.53"   Gusts: NA
Location:  50.67°N, 5.73°E
Report Text: EBLG 282150Z 24016KT 9999 FEW018 02/M02 Q1000 NOSIG
Loading
Personal Weather Stations






























Interactive Weather Map New forecast layout! Learn more

10-Day Weather Forecast

Advertisements
Track Severe Weather on mobile